Time;durP1;ratioP1;P1;durP2;ratioP2;P2;SDS_P1;SDS_P2;PMS_P1;PMS_P2;Temp;Humidity;BMP_temperature;BMP_pressure;BME280_temperature;BME280_humidity;BME280_pressure;Samples;Min_cycle;Max_cycle;Signal;HPM_P1;HPM_P2
2021/07/10 00:01:54;;;;;;;3.50;2.72;;;17.50;99.90;;;;;;4994752;28;20042;-87
2021/07/10 00:04:21;;;;;;;4.80;3.03;;;17.50;99.90;;;;;;4995247;28;20023;-87
2021/07/10 00:06:47;;;;;;;3.47;3.15;;;17.50;99.90;;;;;;4993845;28;20689;-87
2021/07/10 00:09:13;;;;;;;3.50;2.85;;;17.50;99.90;;;;;;4993076;28;20113;-87
2021/07/10 00:11:39;;;;;;;3.20;2.90;;;17.40;99.90;;;;;;4994047;28;20109;-87
2021/07/10 00:14:05;;;;;;;4.47;3.08;;;17.30;1.00;;;;;;4994134;28;20217;-88
2021/07/10 00:16:31;;;;;;;8.48;3.13;;;17.30;1.00;;;;;;4994521;28;20633;-87
2021/07/10 00:18:57;;;;;;;5.45;2.75;;;17.30;1.00;;;;;;4993674;28;20117;-87
2021/07/10 00:21:22;;;;;;;5.80;2.78;;;17.20;1.00;;;;;;4993663;28;20033;-88
2021/07/10 00:23:48;;;;;;;5.10;3.28;;;17.30;1.00;;;;;;4993712;28;20113;-88
2021/07/10 00:26:14;;;;;;;6.05;2.80;;;17.20;1.00;;;;;;4993678;28;20586;-87
2021/07/10 00:28:40;;;;;;;5.90;3.28;;;17.30;1.00;;;;;;4994395;28;20446;-87
2021/07/10 00:31:05;;;;;;;3.83;2.95;;;17.40;1.00;;;;;;4994153;28;20026;-87
2021/07/10 00:33:31;;;;;;;5.72;3.13;;;17.30;1.00;;;;;;4993848;28;20041;-89
2021/07/10 00:35:57;;;;;;;8.75;2.97;;;17.20;1.00;;;;;;4993774;28;20049;-87
2021/07/10 00:38:22;;;;;;;3.50;2.78;;;17.10;1.00;;;;;;4993260;28;20018;-87
2021/07/10 00:40:48;;;;;;;5.07;3.00;;;17.40;1.00;;;;;;4993501;28;20395;-87
2021/07/10 00:43:14;;;;;;;4.10;3.42;;;17.10;1.00;;;;;;4994220;28;20454;-88
2021/07/10 00:45:39;;;;;;;8.10;3.33;;;17.10;1.00;;;;;;4993596;28;20029;-87
2021/07/10 00:48:05;;;;;;;4.00;3.10;;;17.10;1.00;;;;;;4993481;28;20578;-88
2021/07/10 00:50:31;;;;;;;5.03;3.05;;;17.00;1.00;;;;;;4993165;28;20058;-87
2021/07/10 00:52:57;;;;;;;4.75;3.22;;;17.00;1.00;;;;;;4992926;28;20414;-87
2021/07/10 00:55:25;;;;;;;3.78;3.33;;;17.20;1.00;;;;;;5008483;28;20026;-88
2021/07/10 00:57:52;;;;;;;4.00;2.90;;;17.10;1.00;;;;;;4993055;28;20027;-87
2021/07/10 01:00:20;;;;;;;5.93;3.33;;;17.10;1.00;;;;;;4993378;28;20486;-87
2021/07/10 01:02:48;;;;;;;5.55;3.05;;;17.00;1.00;;;;;;4992672;28;20061;-88
2021/07/10 01:05:20;;;;;;;3.70;2.67;;;16.90;1.00;;;;;;4992365;28;20092;-87
2021/07/10 01:07:46;;;;;;;4.50;3.13;;;16.90;1.00;;;;;;4992050;28;20023;-87
2021/07/10 01:10:13;;;;;;;6.18;3.10;;;16.90;1.00;;;;;;4993459;28;20030;-87
2021/07/10 01:12:39;;;;;;;4.97;2.90;;;16.90;1.00;;;;;;4992211;28;20046;-87
2021/07/10 01:15:11;;;;;;;4.68;3.53;;;16.90;1.00;;;;;;4992381;28;20021;-87
2021/07/10 01:17:37;;;;;;;3.88;2.72;;;16.80;1.00;;;;;;5007051;28;20034;-88
2021/07/10 01:20:09;;;;;;;5.80;3.60;;;16.90;1.00;;;;;;4974543;28;20022;-87
2021/07/10 01:22:36;;;;;;;5.22;3.13;;;16.90;1.00;;;;;;4989304;28;20030;-87
2021/07/10 01:25:04;;;;;;;4.93;3.00;;;16.80;1.00;;;;;;4992691;28;20490;-87
2021/07/10 01:27:29;;;;;;;3.33;2.80;;;16.70;1.00;;;;;;4992501;28;20022;-87
2021/07/10 01:29:56;;;;;;;4.38;3.15;;;16.70;1.00;;;;;;4992042;28;20035;-87
2021/07/10 01:32:22;;;;;;;5.97;3.42;;;16.80;1.00;;;;;;4991706;28;20030;-87
2021/07/10 01:34:48;;;;;;;5.85;3.53;;;16.70;1.00;;;;;;4992543;28;20041;-87
2021/07/10 01:37:15;;;;;;;3.30;3.00;;;16.70;1.00;;;;;;4993085;28;20022;-87
2021/07/10 01:39:42;;;;;;;6.43;3.70;;;16.70;1.00;;;;;;4991929;28;20049;-87
2021/07/10 01:42:08;;;;;;;4.38;3.03;;;16.70;1.00;;;;;;4992458;28;20033;-87
2021/07/10 01:44:35;;;;;;;6.53;3.35;;;16.70;1.00;;;;;;4992727;28;20038;-87
2021/07/10 01:47:00;;;;;;;5.10;3.25;;;16.60;1.00;;;;;;4991687;28;20022;-87
2021/07/10 01:49:26;;;;;;;7.25;3.35;;;16.60;1.00;;;;;;4992264;28;20030;-87
2021/07/10 01:51:52;;;;;;;4.63;3.15;;;16.50;1.00;;;;;;4991904;28;20053;-88
2021/07/10 01:54:17;;;;;;;4.85;3.20;;;16.50;1.00;;;;;;4992516;28;20094;-87
2021/07/10 01:56:43;;;;;;;6.97;3.20;;;16.50;1.00;;;;;;4991731;28;20109;-87
2021/07/10 01:59:08;;;;;;;8.48;3.30;;;16.40;1.00;;;;;;4991951;28;20126;-87
2021/07/10 02:01:34;;;;;;;4.03;3.63;;;16.40;1.00;;;;;;4992491;28;20109;-86
2021/07/10 02:04:00;;;;;;;5.80;3.33;;;16.40;1.00;;;;;;4992651;28;20611;-87
2021/07/10 02:06:27;;;;;;;4.30;3.40;;;16.40;1.00;;;;;;4991747;28;20079;-87
2021/07/10 02:08:53;;;;;;;4.90;3.30;;;16.30;1.00;;;;;;4991923;28;20034;-88
2021/07/10 02:11:19;;;;;;;7.40;3.20;;;16.30;1.00;;;;;;4992248;28;20030;-88
2021/07/10 02:13:45;;;;;;;3.75;3.35;;;16.60;1.00;;;;;;4991728;28;20522;-87
2021/07/10 02:16:11;;;;;;;5.22;3.30;;;16.20;1.00;;;;;;4992656;28;20026;-87
2021/07/10 02:18:37;;;;;;;6.97;3.50;;;16.20;1.00;;;;;;4991495;28;20034;-87
2021/07/10 02:21:04;;;;;;;4.68;3.63;;;16.20;1.00;;;;;;4986593;28;20557;-85
2021/07/10 02:23:30;;;;;;;7.55;4.00;;;16.10;1.00;;;;;;4989358;28;20023;-87
2021/07/10 02:25:56;;;;;;;4.60;3.70;;;16.10;1.00;;;;;;4992239;28;20372;-87
2021/07/10 02:28:22;;;;;;;4.25;3.10;;;16.10;1.00;;;;;;5007343;28;20060;-87
2021/07/10 02:30:48;;;;;;;5.28;3.22;;;16.10;1.00;;;;;;4991916;28;20161;-87
2021/07/10 02:33:15;;;;;;;5.80;3.25;;;16.00;1.00;;;;;;4991276;28;20041;-87
2021/07/10 02:35:42;;;;;;;10.25;3.53;;;15.90;1.00;;;;;;5006604;28;20042;-87
2021/07/10 02:38:07;;;;;;;4.55;3.55;;;16.20;1.00;;;;;;4992579;28;20034;-87
2021/07/10 02:40:35;;;;;;;4.65;3.55;;;15.90;1.00;;;;;;4992385;28;20154;-87
2021/07/10 02:43:01;;;;;;;4.82;3.47;;;15.90;1.00;;;;;;5006636;28;20030;-87
2021/07/10 02:45:27;;;;;;;5.13;3.60;;;15.90;1.00;;;;;;4990553;28;20526;-87
2021/07/10 02:47:54;;;;;;;5.30;3.47;;;15.90;1.00;;;;;;4991554;28;20042;-87
2021/07/10 02:50:22;;;;;;;4.32;3.65;;;15.90;1.00;;;;;;4991828;28;20026;-87
2021/07/10 02:52:48;;;;;;;4.85;3.10;;;16.30;1.00;;;;;;4992026;28;20337;-88
2021/07/10 02:55:14;;;;;;;4.05;3.65;;;15.90;1.00;;;;;;4992144;28;20371;-87
2021/07/10 02:57:40;;;;;;;5.80;3.58;;;15.90;1.00;;;;;;4991755;28;20076;-87
2021/07/10 03:00:13;;;;;;;4.45;3.33;;;15.90;1.00;;;;;;4991932;28;20031;-87
2021/07/10 03:02:39;;;;;;;5.32;3.38;;;15.90;1.00;;;;;;4992147;28;20038;-87
2021/07/10 03:05:06;;;;;;;4.28;3.60;;;15.80;1.00;;;;;;4991677;28;20031;-87
2021/07/10 03:07:34;;;;;;;11.10;4.05;;;15.80;1.00;;;;;;4992057;28;20053;-87
2021/07/10 03:10:00;;;;;;;5.65;3.60;;;15.80;1.00;;;;;;4991409;28;20030;-87
2021/07/10 03:12:25;;;;;;;6.32;3.53;;;15.80;1.00;;;;;;4991490;28;20487;-87
2021/07/10 03:14:51;;;;;;;4.53;3.15;;;15.90;1.00;;;;;;4991433;28;20030;-86
2021/07/10 03:17:16;;;;;;;6.40;3.50;;;15.60;1.00;;;;;;4991366;28;20030;-87
2021/07/10 03:19:42;;;;;;;4.03;3.40;;;15.60;1.00;;;;;;4991830;28;20035;-87
2021/07/10 03:22:08;;;;;;;6.13;3.05;;;15.60;1.00;;;;;;4991798;28;20042;-86
2021/07/10 03:24:33;;;;;;;3.60;3.30;;;15.50;1.00;;;;;;4991369;28;20034;-86
2021/07/10 03:26:59;;;;;;;6.28;3.60;;;15.50;1.00;;;;;;4991278;28;20041;-88
2021/07/10 03:29:25;;;;;;;5.90;3.90;;;15.70;1.00;;;;;;4993245;28;20026;-87
2021/07/10 03:31:50;;;;;;;6.03;3.20;;;15.60;1.00;;;;;;4994421;28;20379;-87
2021/07/10 03:34:16;;;;;;;6.55;3.40;;;15.70;1.00;;;;;;4995782;28;20038;-88
2021/07/10 03:36:42;;;;;;;3.53;3.22;;;15.40;1.00;;;;;;4995297;28;20030;-87
2021/07/10 03:39:07;;;;;;;5.05;3.38;;;15.50;1.00;;;;;;4995188;28;20474;-87
2021/07/10 03:41:33;;;;;;;5.85;3.45;;;15.50;1.00;;;;;;4995135;28;20019;-87
2021/07/10 03:43:59;;;;;;;4.28;3.83;;;15.80;1.00;;;;;;4994463;28;20038;-88
2021/07/10 03:46:25;;;;;;;4.40;3.60;;;15.40;1.00;;;;;;5009846;28;20029;-87
2021/07/10 03:48:50;;;;;;;5.68;3.22;;;15.40;1.00;;;;;;4994691;28;20038;-87
2021/07/10 03:51:16;;;;;;;4.53;3.78;;;15.70;1.00;;;;;;4994328;28;20029;-86
2021/07/10 03:53:41;;;;;;;4.68;3.33;;;15.50;1.00;;;;;;4995281;28;20100;-89
2021/07/10 03:56:07;;;;;;;6.97;3.47;;;15.40;1.00;;;;;;4994397;28;20105;-87
2021/07/10 03:58:33;;;;;;;4.93;3.80;;;15.80;1.00;;;;;;4994835;28;20061;-86
2021/07/10 04:00:58;;;;;;;4.65;3.40;;;15.30;1.00;;;;;;4993877;28;20461;-87
2021/07/10 04:03:24;;;;;;;5.25;3.72;;;15.30;1.00;;;;;;4994232;28;20402;-87
2021/07/10 04:05:50;;;;;;;4.40;3.45;;;15.30;1.00;;;;;;4994404;28;20050;-87
2021/07/10 04:08:16;;;;;;;6.82;3.58;;;15.30;1.00;;;;;;4994261;28;20033;-87
2021/07/10 04:10:41;;;;;;;4.60;3.92;;;15.30;1.00;;;;;;4994714;28;20037;-87
2021/07/10 04:13:11;;;;;;;7.35;3.95;;;15.30;1.00;;;;;;4993113;28;20038;-87
2021/07/10 04:15:37;;;;;;;4.85;3.35;;;15.40;1.00;;;;;;4993467;28;20508;-87
2021/07/10 04:18:03;;;;;;;4.40;3.58;;;15.30;1.00;;;;;;4993317;28;20105;-87
2021/07/10 04:20:29;;;;;;;5.05;3.58;;;15.30;1.00;;;;;;4994167;28;20722;-87
2021/07/10 04:22:54;;;;;;;7.65;3.75;;;15.70;1.00;;;;;;4993192;28;20023;-87
2021/07/10 04:25:20;;;;;;;4.50;3.63;;;15.40;1.00;;;;;;4994382;28;20084;-87
2021/07/10 04:27:46;;;;;;;6.00;3.92;;;15.60;1.00;;;;;;4993681;28;20033;-87
2021/07/10 04:30:15;;;;;;;6.25;3.80;;;15.30;1.00;;;;;;4993595;28;20035;-87
2021/07/10 04:32:41;;;;;;;4.88;3.80;;;15.30;1.00;;;;;;5008435;28;20057;-87
2021/07/10 04:35:08;;;;;;;4.68;3.55;;;15.40;1.00;;;;;;4993562;28;20165;-87
2021/07/10 04:37:34;;;;;;;4.50;3.50;;;15.40;1.00;;;;;;4994408;28;20398;-86
2021/07/10 04:40:00;;;;;;;6.32;3.63;;;15.40;1.00;;;;;;4992693;28;20040;-87
2021/07/10 04:42:25;;;;;;;4.72;3.50;;;15.50;1.00;;;;;;5008348;28;20109;-87
2021/07/10 04:44:53;;;;;;;5.20;3.28;;;15.50;1.00;;;;;;4993306;28;20034;-87
2021/07/10 04:47:19;;;;;;;5.55;3.72;;;15.50;1.00;;;;;;4993368;28;20018;-87
2021/07/10 04:49:44;;;;;;;4.15;3.70;;;15.50;1.00;;;;;;5008930;28;20030;-87
2021/07/10 04:52:10;;;;;;;6.68;3.60;;;15.50;1.00;;;;;;4994117;28;20065;-87
2021/07/10 04:54:37;;;;;;;6.82;3.22;;;15.50;1.00;;;;;;4993204;28;20053;-87
2021/07/10 04:57:03;;;;;;;6.38;3.75;;;15.60;1.00;;;;;;4993191;28;20038;-87
2021/07/10 04:59:29;;;;;;;5.88;3.50;;;15.50;1.00;;;;;;4993298;28;20053;-87
2021/07/10 05:01:54;;;;;;;7.93;3.67;;;15.50;1.00;;;;;;5008685;28;20110;-86
2021/07/10 05:04:20;;;;;;;4.15;3.67;;;15.60;1.00;;;;;;4993919;28;20026;-87
2021/07/10 05:06:46;;;;;;;6.15;4.10;;;15.60;1.00;;;;;;4992580;28;20057;-87
2021/07/10 05:09:11;;;;;;;4.90;3.92;;;15.60;1.00;;;;;;4993179;28;20033;-87
2021/07/10 05:11:37;;;;;;;7.68;3.80;;;15.60;1.00;;;;;;4992979;28;20030;-87
2021/07/10 05:14:03;;;;;;;4.38;3.55;;;15.60;1.00;;;;;;4992491;28;20450;-87
2021/07/10 05:16:29;;;;;;;6.97;4.20;;;15.60;1.00;;;;;;4994279;28;20090;-87
2021/07/10 05:18:55;;;;;;;8.82;5.10;;;15.60;1.00;;;;;;4992737;28;20125;-87
2021/07/10 05:21:22;;;;;;;7.70;4.70;;;15.80;1.00;;;;;;4992929;28;20022;-87
2021/07/10 05:23:47;;;;;;;8.93;5.30;;;15.70;1.00;;;;;;4992725;28;20037;-87
2021/07/10 05:26:13;;;;;;;6.28;5.10;;;15.80;1.00;;;;;;4992600;28;20502;-87
2021/07/10 05:28:39;;;;;;;6.10;5.10;;;15.80;1.00;;;;;;4992810;28;20391;-87
2021/07/10 05:31:04;;;;;;;7.22;5.55;;;15.90;1.00;;;;;;4991655;28;20594;-87
2021/07/10 05:33:30;;;;;;;6.53;5.30;;;15.90;1.00;;;;;;4992562;28;20414;-87
2021/07/10 05:35:56;;;;;;;8.75;5.43;;;16.00;1.00;;;;;;4992834;28;20061;-87
2021/07/10 05:38:22;;;;;;;9.00;5.68;;;16.10;1.00;;;;;;4992547;28;20018;-87
2021/07/10 05:40:48;;;;;;;9.73;5.88;;;16.10;1.00;;;;;;4992532;28;20671;-87
2021/07/10 05:43:13;;;;;;;7.38;4.85;;;16.20;1.00;;;;;;4992548;28;20014;-87
2021/07/10 05:45:39;;;;;;;9.50;5.50;;;16.20;1.00;;;;;;5007463;28;20483;-87
2021/07/10 05:48:06;;;;;;;8.32;5.22;;;16.30;1.00;;;;;;4992440;28;20062;-87
2021/07/10 05:50:33;;;;;;;13.05;5.90;;;16.40;1.00;;;;;;4992485;28;20065;-87
2021/07/10 05:52:58;;;;;;;5.82;5.05;;;16.50;1.00;;;;;;4991868;28;20042;-87
2021/07/10 05:55:24;;;;;;;8.05;5.63;;;16.50;1.00;;;;;;4992910;28;20037;-87
2021/07/10 05:57:50;;;;;;;7.03;4.95;;;16.40;1.00;;;;;;4991862;28;20030;-87
2021/07/10 06:00:16;;;;;;;6.57;5.03;;;16.50;1.00;;;;;;4991898;28;20026;-87
2021/07/10 06:02:42;;;;;;;7.07;4.72;;;16.60;1.00;;;;;;4992237;28;20026;-87
2021/07/10 06:05:09;;;;;;;6.43;5.10;;;16.70;1.00;;;;;;5007263;28;20406;-87
2021/07/10 06:07:37;;;;;;;6.70;4.50;;;16.80;1.00;;;;;;4992768;28;20134;-87
2021/07/10 06:10:08;;;;;;;4.95;4.15;;;16.70;1.00;;;;;;4991508;28;20038;-87
2021/07/10 06:12:35;;;;;;;10.35;4.90;;;16.90;1.00;;;;;;4991731;28;20498;-87
2021/07/10 06:15:01;;;;;;;6.82;4.57;;;17.00;1.00;;;;;;4992383;28;20022;-87
2021/07/10 06:17:27;;;;;;;6.68;4.72;;;17.10;1.00;;;;;;4991836;28;20038;-86
2021/07/10 06:19:53;;;;;;;7.05;4.70;;;17.20;1.00;;;;;;4992027;28;20506;-87
2021/07/10 06:22:19;;;;;;;6.22;4.55;;;17.30;1.00;;;;;;4992984;28;20518;-87
2021/07/10 06:24:45;;;;;;;7.90;5.03;;;17.40;1.00;;;;;;4991454;28;20427;-87
2021/07/10 06:27:11;;;;;;;6.05;4.68;;;17.40;1.00;;;;;;4991870;28;20080;-87
2021/07/10 06:29:38;;;;;;;6.03;4.72;;;17.50;1.00;;;;;;4991370;28;20022;-87
2021/07/10 06:32:07;;;;;;;5.13;4.53;;;17.40;1.00;;;;;;4992006;28;20058;-86
2021/07/10 06:34:33;;;;;;;5.88;4.78;;;17.50;1.00;;;;;;4988162;28;20027;-87
2021/07/10 06:36:59;;;;;;;8.57;5.55;;;17.70;1.00;;;;;;4991374;28;20041;-87
2021/07/10 06:39:25;;;;;;;6.18;4.65;;;17.70;1.00;;;;;;4991260;28;20026;-87
2021/07/10 06:41:50;;;;;;;6.70;5.10;;;17.80;1.00;;;;;;4991814;28;20065;-87
2021/07/10 06:44:16;;;;;;;8.02;5.03;;;17.60;1.00;;;;;;4991509;28;20029;-87
2021/07/10 06:46:42;;;;;;;5.60;4.93;;;17.80;1.00;;;;;;4991662;28;20037;-87
2021/07/10 06:49:07;;;;;;;8.05;5.40;;;17.90;1.00;;;;;;4991920;28;20027;-87
2021/07/10 06:51:34;;;;;;;7.07;4.95;;;18.00;1.00;;;;;;4991651;28;20034;-87
2021/07/10 06:54:00;;;;;;;9.30;5.10;;;18.10;1.00;;;;;;4991336;28;20049;-87
2021/07/10 06:56:25;;;;;;;7.05;5.13;;;18.30;1.00;;;;;;4991176;28;20026;-87
2021/07/10 06:58:51;;;;;;;7.30;5.03;;;18.40;1.00;;;;;;4991489;28;20030;-87
2021/07/10 07:01:17;;;;;;;6.70;5.00;;;18.50;1.00;;;;;;5009284;28;20038;-87
2021/07/10 07:03:43;;;;;;;5.53;4.70;;;18.50;1.00;;;;;;4992175;28;20045;-87
2021/07/10 07:06:08;;;;;;;8.57;5.15;;;18.60;1.00;;;;;;4995070;28;20525;-86
2021/07/10 07:08:34;;;;;;;8.75;4.75;;;18.60;1.00;;;;;;4995643;28;20399;-90
2021/07/10 07:10:59;;;;;;;5.85;4.60;;;18.60;1.00;;;;;;4995913;28;20505;-90
2021/07/10 07:13:25;;;;;;;7.97;5.05;;;18.80;1.00;;;;;;4996327;28;20049;-89
2021/07/10 07:15:51;;;;;;;6.80;4.90;;;19.00;1.00;;;;;;4996184;28;20041;-90
2021/07/10 07:18:17;;;;;;;6.80;4.78;;;18.90;1.00;;;;;;4995478;28;20450;-90
2021/07/10 07:20:43;;;;;;;8.88;4.78;;;19.00;1.00;;;;;;4996019;28;20023;-88
2021/07/10 07:23:09;;;;;;;7.57;4.28;;;19.10;1.00;;;;;;4981708;28;20403;-90
2021/07/10 07:25:35;;;;;;;5.78;4.32;;;19.10;99.90;;;;;;4996239;28;20037;-89
2021/07/10 07:28:01;;;;;;;8.15;4.50;;;19.20;99.90;;;;;;5010393;28;20026;-88
2021/07/10 07:30:26;;;;;;;7.07;4.78;;;19.30;99.90;;;;;;4995576;28;20030;-90
2021/07/10 07:32:52;;;;;;;9.20;4.65;;;19.40;99.90;;;;;;4995027;28;20499;-89
2021/07/10 07:35:18;;;;;;;6.03;4.30;;;19.40;99.90;;;;;;4995077;28;20030;-90
2021/07/10 07:37:45;;;;;;;6.28;4.45;;;19.40;99.90;;;;;;4995145;28;20077;-89
2021/07/10 07:40:14;;;;;;;6.65;4.18;;;19.60;99.90;;;;;;4994955;28;20042;-90
2021/07/10 07:42:40;;;;;;;5.85;4.00;;;19.70;99.90;;;;;;4994766;28;20034;-90
2021/07/10 07:45:07;;;;;;;5.63;4.60;;;19.80;99.90;;;;;;4994839;28;20030;-90
2021/07/10 07:47:34;;;;;;;5.35;4.05;;;19.70;99.90;;;;;;4994967;28;20049;-90
2021/07/10 07:49:59;;;;;;;6.13;4.50;;;19.80;99.90;;;;;;4994293;28;20717;-90
2021/07/10 07:52:25;;;;;;;5.38;4.43;;;19.90;99.90;;;;;;5009449;23;20019;-91
2021/07/10 07:54:50;;;;;;;5.18;4.30;;;19.90;99.90;;;;;;4994750;28;20136;-91
2021/07/10 07:57:16;;;;;;;7.75;4.47;;;19.90;99.90;;;;;;5005097;28;20093;-91
2021/07/10 07:59:42;;;;;;;8.52;4.30;;;20.00;99.90;;;;;;4984926;28;20023;-91
2021/07/10 08:02:08;;;;;;;5.63;4.75;;;20.10;99.90;;;;;;4994711;28;20406;-91
2021/07/10 08:04:35;;;;;;;7.38;4.47;;;20.00;99.90;;;;;;4992241;28;20050;-91
2021/07/10 08:07:00;;;;;;;4.40;4.00;;;20.20;99.90;;;;;;4994727;28;20105;-91
2021/07/10 08:09:26;;;;;;;6.43;4.82;;;20.20;99.90;;;;;;4994429;28;20030;-91
2021/07/10 08:11:52;;;;;;;5.97;4.65;;;20.20;99.90;;;;;;5009494;28;20100;-91
2021/07/10 08:14:18;;;;;;;4.43;4.03;;;20.30;99.90;;;;;;4994720;28;20078;-91
2021/07/10 08:16:43;;;;;;;8.27;4.40;;;20.50;99.90;;;;;;4994817;28;20031;-91
2021/07/10 08:19:09;;;;;;;6.50;3.97;;;20.50;99.90;;;;;;5000790;28;20117;-92
2021/07/10 08:21:35;;;;;;;4.45;4.05;;;20.60;99.90;;;;;;4994438;28;20023;-92
2021/07/10 08:24:02;;;;;;;5.78;4.30;;;20.80;99.90;;;;;;4994705;28;20506;-92
2021/07/10 08:26:29;;;;;;;6.40;4.15;;;20.90;99.90;;;;;;4993035;28;20449;-92
2021/07/10 08:28:55;;;;;;;5.80;4.13;;;21.00;99.90;;;;;;4995112;28;20114;-92
2021/07/10 08:31:21;;;;;;;4.50;4.05;;;21.10;99.90;;;;;;4995043;28;20034;-90
2021/07/10 08:33:47;;;;;;;4.32;3.80;;;21.20;99.90;;;;;;4994104;28;20096;-90
2021/07/10 08:36:12;;;;;;;6.00;3.75;;;21.20;99.90;;;;;;4988886;28;20062;-90
2021/07/10 08:38:38;;;;;;;5.78;3.70;;;21.20;99.90;;;;;;4993634;28;20493;-90
2021/07/10 08:41:08;;;;;;;4.95;3.83;;;21.40;99.90;;;;;;4980539;28;20038;-89
2021/07/10 08:43:36;;;;;;;4.38;3.97;;;21.60;99.90;;;;;;4975058;28;20030;-90
2021/07/10 08:46:03;;;;;;;5.22;3.80;;;21.60;99.90;;;;;;4992610;28;20065;-90
2021/07/10 08:48:30;;;;;;;5.93;4.25;;;21.60;99.90;;;;;;4989438;28;20489;-90
2021/07/10 08:50:58;;;;;;;4.72;3.50;;;21.80;99.90;;;;;;4991510;28;20026;-90
2021/07/10 08:53:24;;;;;;;4.32;3.90;;;21.90;99.90;;;;;;4993581;28;20486;-90
2021/07/10 08:55:50;;;;;;;6.47;3.47;;;22.00;99.90;;;;;;4992724;28;20106;-90
2021/07/10 08:58:19;;;;;;;4.57;3.65;;;22.10;99.90;;;;;;4994673;28;20042;-90
2021/07/10 09:00:46;;;;;;;3.95;3.20;;;22.30;99.90;;;;;;4993586;28;20030;-90
2021/07/10 09:03:12;;;;;;;3.95;3.55;;;22.40;99.90;;;;;;4993986;28;20104;-88
2021/07/10 09:05:39;;;;;;;3.67;3.22;;;22.50;99.90;;;;;;4994032;28;20483;-90
2021/07/10 09:08:22;;;;;;;3.92;3.42;;;22.50;99.90;;;;;;4989389;28;20418;-90
2021/07/10 09:10:56;;;;;;;4.72;2.95;;;22.90;99.90;;;;;;4989063;28;20030;-88
2021/07/10 09:13:33;;;;;;;4.90;3.45;;;22.90;99.90;;;;;;4991950;28;20046;-91
2021/07/10 09:16:04;;;;;;;6.25;3.92;;;23.10;99.90;;;;;;4988398;28;20023;-89
2021/07/10 09:18:53;;;;;;;3.65;2.65;;;23.20;99.90;;;;;;4991301;28;20109;-89
2021/07/10 09:21:41;;;;;;;4.47;2.70;;;23.20;99.90;;;;;;4986985;28;20031;-90
2021/07/10 09:24:35;;;;;;;6.30;3.05;;;23.30;99.90;;;;;;4987533;28;20431;-89
2021/07/10 09:27:09;;;;;;;3.22;2.50;;;23.80;99.90;;;;;;4985943;28;20091;-89
2021/07/10 09:29:46;;;;;;;2.75;2.25;;;24.30;99.90;;;;;;4989534;28;20030;-89
2021/07/10 09:32:16;;;;;;;3.45;2.28;;;24.70;99.90;;;;;;4978313;28;20044;-91
2021/07/10 09:34:46;;;;;;;3.00;2.70;;;25.00;99.90;;;;;;4992580;28;20042;-89
2021/07/10 09:37:18;;;;;;;4.30;3.00;;;25.30;99.90;;;;;;4990909;28;20030;-89
2021/07/10 09:39:57;;;;;;;2.72;2.53;;;25.60;99.90;;;;;;4992339;28;20026;-90
2021/07/10 09:42:45;;;;;;;3.00;2.70;;;25.90;99.90;;;;;;4993109;28;20018;-90
2021/07/10 09:45:21;;;;;;;2.83;2.63;;;26.10;99.90;;;;;;4992860;28;20038;-90
2021/07/10 09:47:46;;;;;;;2.90;2.55;;;26.50;99.90;;;;;;4992304;28;20030;-90
2021/07/10 09:50:22;;;;;;;3.33;2.45;;;26.70;99.90;;;;;;4992424;28;20598;-91
2021/07/10 09:52:48;;;;;;;4.18;2.60;;;26.90;99.90;;;;;;4992388;28;20078;-90
2021/07/10 09:55:15;;;;;;;3.33;3.03;;;27.00;99.90;;;;;;4980715;28;20022;-90
2021/07/10 09:57:43;;;;;;;2.90;2.70;;;26.50;99.90;;;;;;4990605;28;20034;-89
2021/07/10 10:00:18;;;;;;;4.15;2.80;;;26.40;99.90;;;;;;4992130;28;20022;-92
2021/07/10 10:02:50;;;;;;;6.07;2.88;;;26.40;99.90;;;;;;4982694;28;20073;-92
2021/07/10 10:05:18;;;;;;;3.53;3.10;;;26.50;99.90;;;;;;4993526;28;20045;-91
2021/07/10 10:07:47;;;;;;;5.28;3.33;;;26.60;99.90;;;;;;4992870;28;20032;-92
2021/07/10 10:10:35;;;;;;;5.05;2.75;;;26.20;99.90;;;;;;4990075;28;20038;-90
2021/07/10 10:13:07;;;;;;;7.78;3.30;;;26.20;99.90;;;;;;4989142;28;20027;-91
2021/07/10 10:15:47;;;;;;;4.53;3.10;;;26.40;99.90;;;;;;4992654;28;20026;-90
2021/07/10 10:18:15;;;;;;;5.32;3.30;;;26.30;99.90;;;;;;4990691;28;20422;-90
2021/07/10 10:20:42;;;;;;;5.20;3.47;;;25.70;99.90;;;;;;4992764;28;20026;-90
2021/07/10 10:23:10;;;;;;;3.20;2.90;;;25.40;99.90;;;;;;4992547;28;20022;-90
2021/07/10 10:25:36;;;;;;;3.55;3.10;;;25.40;99.90;;;;;;4988500;28;20027;-90
2021/07/10 10:28:18;;;;;;;3.70;2.85;;;25.30;99.90;;;;;;4991812;28;20394;-90
2021/07/10 10:30:44;;;;;;;4.45;2.80;;;25.30;99.90;;;;;;4990815;28;20077;-90
2021/07/10 10:33:11;;;;;;;2.95;2.25;;;25.30;99.90;;;;;;4991845;28;20030;-89
2021/07/10 10:35:37;;;;;;;2.90;2.70;;;25.20;99.90;;;;;;4990791;28;20085;-90
2021/07/10 10:38:03;;;;;;;2.67;2.47;;;25.20;99.90;;;;;;4992204;28;20494;-90
2021/07/10 10:40:29;;;;;;;3.08;2.58;;;25.40;99.90;;;;;;4995718;28;20121;-91
2021/07/10 10:43:01;;;;;;;3.05;2.30;;;25.50;99.90;;;;;;4991657;28;20084;-90
2021/07/10 10:45:28;;;;;;;4.88;2.50;;;25.70;99.90;;;;;;4990491;28;20110;-91
2021/07/10 10:47:54;;;;;;;3.45;2.40;;;25.70;99.90;;;;;;4994095;28;20034;-91
2021/07/10 10:50:27;;;;;;;2.47;2.30;;;25.80;99.90;;;;;;4991193;28;20030;-90
2021/07/10 10:52:56;;;;;;;2.88;2.58;;;25.80;99.90;;;;;;4992577;28;20054;-92
2021/07/10 10:55:42;;;;;;;4.18;3.05;;;25.90;99.90;;;;;;4993535;28;20450;-92
2021/07/10 10:58:18;;;;;;;4.43;2.50;;;26.00;99.90;;;;;;4989993;28;20034;-91
2021/07/10 11:00:56;;;;;;;2.97;2.70;;;25.70;99.90;;;;;;4988142;28;20049;-91
2021/07/10 11:03:22;;;;;;;2.80;2.50;;;25.70;99.90;;;;;;4988352;28;20073;-91
2021/07/10 11:05:53;;;;;;;4.00;2.50;;;25.40;99.90;;;;;;4996128;28;20030;-94
2021/07/10 11:08:22;;;;;;;3.63;2.70;;;25.50;99.90;;;;;;4996538;28;20031;-95
2021/07/10 11:11:07;;;;;;;5.20;2.80;;;25.70;99.90;;;;;;4995366;28;20073;-94
2021/07/10 11:13:58;;;;;;;3.13;2.83;;;26.20;99.90;;;;;;4996507;28;20042;-93
2021/07/10 11:16:25;;;;;;;2.97;2.70;;;26.40;99.90;;;;;;4994847;28;20511;-92
2021/07/10 11:18:55;;;;;;;3.22;2.70;;;26.40;99.90;;;;;;4996490;28;20029;-95
2021/07/10 11:21:37;;;;;;;3.03;2.70;;;26.30;99.90;;;;;;4999753;28;20031;-96
2021/07/10 11:24:19;;;;;;;3.42;2.72;;;26.60;99.90;;;;;;5011225;28;20057;-96
2021/07/10 11:26:57;;;;;;;3.95;2.65;;;26.60;99.90;;;;;;4996166;28;20054;-96
2021/07/10 11:29:31;;;;;;;3.22;2.45;;;26.50;99.90;;;;;;5010543;28;20023;-96
2021/07/10 11:32:13;;;;;;;2.78;2.33;;;26.40;99.90;;;;;;4996123;28;20114;-89
2021/07/10 11:34:49;;;;;;;2.80;2.60;;;26.30;99.90;;;;;;4992299;28;20040;-89
2021/07/10 11:37:44;;;;;;;4.68;2.70;;;26.50;99.90;;;;;;4990229;28;20034;-89
2021/07/10 11:40:11;;;;;;;3.25;2.90;;;26.50;99.90;;;;;;4989064;28;20039;-88
2021/07/10 11:42:41;;;;;;;2.80;2.60;;;26.50;99.90;;;;;;5006311;28;20031;-89
2021/07/10 11:45:08;;;;;;;3.03;2.72;;;26.80;99.90;;;;;;4989032;28;20037;-89
2021/07/10 11:47:39;;;;;;;2.70;2.50;;;26.80;99.90;;;;;;4993735;28;20034;-89
2021/07/10 11:50:15;;;;;;;4.93;2.72;;;26.60;99.90;;;;;;4993280;28;20045;-88
2021/07/10 11:52:52;;;;;;;2.97;2.67;;;26.60;99.90;;;;;;4992252;28;20050;-89
2021/07/10 11:55:21;;;;;;;3.53;2.70;;;27.20;99.90;;;;;;4995326;28;20031;-89
2021/07/10 11:57:47;;;;;;;3.80;2.58;;;27.80;99.90;;;;;;4995393;28;20027;-89
2021/07/10 12:00:14;;;;;;;4.43;4.03;;;28.10;99.90;;;;;;4994927;28;20147;-89
2021/07/10 12:02:42;;;;;;;3.10;2.80;;;28.20;99.90;;;;;;4995196;28;20027;-89
2021/07/10 12:05:13;;;;;;;2.63;2.33;;;28.80;99.90;;;;;;4980020;28;20080;-89
2021/07/10 12:07:45;;;;;;;4.35;2.55;;;30.70;99.90;;;;;;4991681;28;20026;-90
2021/07/10 12:10:20;;;;;;;2.40;2.20;;;32.50;99.90;;;;;;4975536;28;20534;-89
2021/07/10 12:12:49;;;;;;;2.88;2.50;;;34.80;99.90;;;;;;4993719;28;20030;-89
2021/07/10 12:15:27;;;;;;;3.08;2.53;;;35.90;99.90;;;;;;5005398;28;20037;-89
2021/07/10 12:17:55;;;;;;;2.35;2.15;;;37.10;99.90;;;;;;4985141;28;20030;-90
2021/07/10 12:20:25;;;;;;;2.75;2.13;;;37.10;99.90;;;;;;4994854;28;20486;-89
2021/07/10 12:22:50;;;;;;;2.72;2.28;;;38.10;99.90;;;;;;4994699;28;20473;-89
2021/07/10 12:25:16;;;;;;;2.40;2.20;;;38.50;99.90;;;;;;4995145;28;20026;-89
2021/07/10 12:27:42;;;;;;;3.38;2.20;;;38.70;99.90;;;;;;4994197;28;20390;-89
2021/07/10 12:30:08;;;;;;;2.42;2.22;;;39.80;99.90;;;;;;5005995;28;20050;-89
2021/07/10 12:32:34;;;;;;;2.78;2.20;;;39.90;99.90;;;;;;4982162;28;20445;-90
2021/07/10 12:34:59;;;;;;;2.30;2.20;;;38.70;99.90;;;;;;4994468;28;20121;-90
2021/07/10 12:37:27;;;;;;;3.63;2.40;;;38.30;99.90;;;;;;4995093;28;20022;-90
2021/07/10 12:40:03;;;;;;;2.72;2.30;;;39.80;99.90;;;;;;4993106;28;20447;-90
2021/07/10 12:42:29;;;;;;;1.83;1.73;;;41.00;99.90;;;;;;4993770;28;20398;-90
2021/07/10 12:44:55;;;;;;;2.65;2.17;;;40.70;99.90;;;;;;4993874;28;20034;-89
2021/07/10 12:47:22;;;;;;;2.53;2.30;;;40.70;99.90;;;;;;4994614;28;20018;-90
2021/07/10 12:49:49;;;;;;;2.25;1.80;;;39.60;99.90;;;;;;4995144;28;20033;-90
2021/07/10 12:52:35;;;;;;;2.75;2.00;;;40.10;99.90;;;;;;4994767;28;20117;-88
2021/07/10 12:55:07;;;;;;;2.08;1.90;;;40.60;99.90;;;;;;4993908;28;20125;-91
2021/07/10 12:57:40;;;;;;;2.30;2.10;;;40.50;99.90;;;;;;4994080;28;20037;-90